Time;durP1;ratioP1;P1;durP2;ratioP2;P2;SDS_P1;SDS_P2;PMS_P1;PMS_P2;Temp;Humidity;BMP_temperature;BMP_pressure;BME280_temperature;BME280_humidity;BME280_pressure;Samples;Min_cycle;Max_cycle;Signal;HPM_P1;HPM_P2
2021/06/03 00:01:14;;;;;;;16.58;12.18;;;13.90;99.90;;;;;;5036069;28;20063;-64
2021/06/03 00:03:40;;;;;;;17.80;12.63;;;13.90;99.90;;;;;;5033587;28;20121;-64
2021/06/03 00:06:06;;;;;;;20.52;13.00;;;13.90;99.90;;;;;;5034797;28;20463;-64
2021/06/03 00:08:33;;;;;;;20.63;12.25;;;14.00;99.90;;;;;;5034311;28;20560;-64
2021/06/03 00:11:05;;;;;;;20.17;12.90;;;14.00;99.90;;;;;;5035752;28;20029;-64
2021/06/03 00:13:33;;;;;;;17.00;12.27;;;14.00;99.90;;;;;;5035723;28;20039;-63
2021/06/03 00:16:03;;;;;;;18.27;12.20;;;14.00;99.90;;;;;;5034930;28;20029;-63
2021/06/03 00:18:29;;;;;;;;;;;14.00;99.90;;;;;;5034607;28;20033;-64
2021/06/03 00:20:55;;;;;;;21.85;12.52;;;14.00;99.90;;;;;;5036201;28;20371;-64
2021/06/03 00:23:21;;;;;;;23.02;14.10;;;13.90;99.90;;;;;;5035003;28;20029;-64
2021/06/03 00:25:47;;;;;;;18.30;12.77;;;13.90;99.90;;;;;;5032866;28;20386;-64
2021/06/03 00:28:13;;;;;;;21.92;11.90;;;13.90;99.90;;;;;;5035905;28;20041;-64
2021/06/03 00:30:39;;;;;;;17.20;11.48;;;14.00;99.90;;;;;;5031027;28;20037;-64
2021/06/03 00:33:05;;;;;;;15.38;11.48;;;14.00;99.90;;;;;;5036795;28;20037;-63
2021/06/03 00:35:32;;;;;;;16.15;11.15;;;14.00;99.90;;;;;;5018270;28;20219;-64
2021/06/03 00:37:58;;;;;;;14.88;9.52;;;14.10;99.90;;;;;;5035412;28;20037;-64
2021/06/03 00:40:25;;;;;;;14.90;10.50;;;14.00;99.90;;;;;;5033785;28;20033;-64
2021/06/03 00:42:51;;;;;;;16.08;11.13;;;14.10;99.90;;;;;;5036043;28;20465;-64
2021/06/03 00:45:24;;;;;;;18.45;11.07;;;14.00;99.90;;;;;;5035215;28;20033;-63
2021/06/03 00:47:50;;;;;;;16.15;11.50;;;13.90;99.90;;;;;;5035213;28;20025;-63
2021/06/03 00:50:32;;;;;;;15.13;11.00;;;14.00;99.90;;;;;;5035482;28;20033;-63
2021/06/03 00:53:01;;;;;;;15.23;11.00;;;13.90;99.90;;;;;;5035717;28;20090;-63
2021/06/03 00:55:27;;;;;;;17.58;11.38;;;13.90;99.90;;;;;;5033881;28;20511;-63
2021/06/03 00:57:53;;;;;;;19.05;11.23;;;13.90;99.90;;;;;;5031425;28;20037;-65
2021/06/03 01:00:19;;;;;;;15.27;10.80;;;13.90;99.90;;;;;;5034966;28;20967;-63
2021/06/03 01:02:45;;;;;;;18.95;10.73;;;13.90;99.90;;;;;;5032986;28;20064;-63
2021/06/03 01:05:27;;;;;;;14.23;10.23;;;13.90;99.90;;;;;;5033998;28;20489;-63
2021/06/03 01:07:57;;;;;;;18.42;11.40;;;13.90;99.90;;;;;;5029425;28;20040;-62
2021/06/03 01:10:25;;;;;;;;;;;13.90;99.90;;;;;;5035126;28;20029;-64
2021/06/03 01:13:34;;;;;;;18.13;10.48;;;14.00;99.90;;;;;;5015109;28;19919;-63
2021/06/03 01:16:03;;;;;;;16.40;10.80;;;14.00;99.90;;;;;;5031213;28;20052;-63
2021/06/03 01:18:31;;;;;;;14.27;11.23;;;14.00;99.90;;;;;;5032825;28;20088;-63
2021/06/03 01:20:58;;;;;;;17.88;10.40;;;13.90;99.90;;;;;;5034774;28;20112;-63
2021/06/03 01:23:32;;;;;;;17.83;10.93;;;13.90;99.90;;;;;;5034068;28;20504;-63
2021/06/03 01:25:59;;;;;;;17.67;10.70;;;13.90;99.90;;;;;;5009008;28;20025;-63
2021/06/03 01:28:25;;;;;;;14.38;10.80;;;13.80;99.90;;;;;;5033636;28;20496;-64
2021/06/03 01:30:54;;;;;;;13.75;10.98;;;13.80;99.90;;;;;;5033917;28;20744;-64
2021/06/03 01:33:29;;;;;;;15.25;10.20;;;13.80;99.90;;;;;;5033535;28;20100;-63
2021/06/03 01:36:00;;;;;;;16.52;11.30;;;13.80;99.90;;;;;;5031292;28;20029;-64
2021/06/03 01:38:29;;;;;;;14.02;10.32;;;13.80;99.90;;;;;;5033975;28;20029;-64
2021/06/03 01:40:57;;;;;;;18.90;10.37;;;13.80;99.90;;;;;;5030365;28;20134;-64
2021/06/03 01:43:25;;;;;;;14.88;10.27;;;13.80;99.90;;;;;;5034779;28;20106;-63
2021/06/03 01:45:51;;;;;;;21.85;10.73;;;13.90;99.90;;;;;;5031822;28;20044;-63
2021/06/03 01:48:20;;;;;;;19.35;11.13;;;13.90;99.90;;;;;;5034115;28;20132;-64
2021/06/03 01:50:49;;;;;;;19.13;11.07;;;13.80;99.90;;;;;;5034040;28;20037;-63
2021/06/03 01:53:17;;;;;;;19.83;12.82;;;13.80;99.90;;;;;;5032630;28;20071;-61
2021/06/03 01:55:43;;;;;;;16.10;11.60;;;13.70;99.90;;;;;;5033173;28;20037;-62
2021/06/03 01:58:10;;;;;;;20.67;11.85;;;13.70;99.90;;;;;;5035362;28;20569;-61
2021/06/03 02:00:37;;;;;;;18.95;10.77;;;13.70;99.90;;;;;;5032239;28;20037;-62
2021/06/03 02:03:03;;;;;;;17.48;10.73;;;13.70;99.90;;;;;;5034864;28;20033;-62
2021/06/03 02:05:29;;;;;;;19.65;11.57;;;13.70;99.90;;;;;;5033853;28;20584;-62
2021/06/03 02:07:55;;;;;;;14.05;10.73;;;13.60;99.90;;;;;;5032788;28;20124;-63
2021/06/03 02:10:22;;;;;;;17.60;11.70;;;13.60;99.90;;;;;;5037690;28;20029;-62
2021/06/03 02:13:10;;;;;;;18.08;11.80;;;13.60;99.90;;;;;;5038048;28;20044;-63
2021/06/03 02:15:41;;;;;;;23.52;11.75;;;13.60;99.90;;;;;;5036599;28;20385;-62
2021/06/03 02:18:10;;;;;;;20.38;10.95;;;13.60;99.90;;;;;;5036268;28;20044;-63
2021/06/03 02:20:40;;;;;;;19.75;10.48;;;13.60;99.90;;;;;;5036847;28;20040;-63
2021/06/03 02:23:07;;;;;;;16.00;10.07;;;13.60;99.90;;;;;;5037769;28;20970;-63
2021/06/03 02:25:33;;;;;;;14.95;9.63;;;13.60;99.90;;;;;;5037015;28;20580;-62
2021/06/03 02:28:00;;;;;;;16.73;10.35;;;13.60;99.90;;;;;;5036459;28;20039;-62
2021/06/03 02:30:26;;;;;;;13.15;9.20;;;13.60;99.90;;;;;;5034722;28;20111;-62
2021/06/03 02:32:54;;;;;;;17.42;10.13;;;13.60;99.90;;;;;;5036882;28;20045;-63
2021/06/03 02:35:20;;;;;;;15.20;9.38;;;13.60;99.90;;;;;;5037042;28;20025;-62
2021/06/03 02:37:47;;;;;;;17.35;9.73;;;13.60;99.90;;;;;;5036779;28;20191;-63
2021/06/03 02:40:19;;;;;;;11.63;9.45;;;13.70;99.90;;;;;;5037300;28;20032;-63
2021/06/03 02:42:47;;;;;;;13.35;9.18;;;13.60;99.90;;;;;;5036558;28;20032;-63
2021/06/03 02:45:20;;;;;;;13.40;8.63;;;13.70;99.90;;;;;;5018630;28;20032;-62
2021/06/03 02:47:46;;;;;;;17.08;7.93;;;13.70;99.90;;;;;;5036964;28;20029;-62
2021/06/03 02:50:14;;;;;;;14.27;9.00;;;13.70;99.90;;;;;;5037128;28;20547;-63
2021/06/03 02:52:41;;;;;;;13.30;8.48;;;13.70;99.90;;;;;;5037479;28;20032;-64
2021/06/03 02:55:10;;;;;;;13.57;8.65;;;13.70;99.90;;;;;;5036868;28;20064;-63
2021/06/03 02:57:36;;;;;;;15.07;7.28;;;13.70;99.90;;;;;;5033919;28;20511;-64
2021/06/03 03:00:11;;;;;;;15.50;7.82;;;13.70;99.90;;;;;;5011193;28;20045;-63
2021/06/03 03:02:37;;;;;;;11.48;7.22;;;13.70;99.90;;;;;;5037984;28;20344;-64
2021/06/03 03:05:05;;;;;;;9.77;6.53;;;13.60;99.90;;;;;;5012827;28;20624;-63
2021/06/03 03:07:32;;;;;;;10.13;6.22;;;13.70;99.90;;;;;;5019011;28;20047;-64
2021/06/03 03:10:00;;;;;;;8.20;5.63;;;13.70;99.90;;;;;;5037895;28;20067;-63
2021/06/03 03:12:26;;;;;;;10.27;5.82;;;13.70;99.90;;;;;;5037274;28;20393;-63
2021/06/03 03:14:52;;;;;;;7.80;5.30;;;13.80;99.90;;;;;;5034257;28;20421;-63
2021/06/03 03:17:17;;;;;;;6.90;5.00;;;13.80;99.90;;;;;;5036213;28;20026;-63
2021/06/03 03:19:43;;;;;;;8.82;4.93;;;13.90;99.90;;;;;;5034887;28;20503;-63
2021/06/03 03:22:09;;;;;;;10.48;5.93;;;14.00;99.90;;;;;;5035929;28;20150;-64
2021/06/03 03:24:35;;;;;;;9.00;5.90;;;14.00;99.90;;;;;;5035113;28;20048;-63
2021/06/03 03:27:01;;;;;;;10.20;6.15;;;13.90;99.90;;;;;;5036199;28;20476;-64
2021/06/03 03:29:27;;;;;;;10.38;7.25;;;13.90;99.90;;;;;;5037883;28;20347;-64
2021/06/03 03:31:53;;;;;;;12.23;7.45;;;14.00;99.90;;;;;;5033122;28;20036;-64
2021/06/03 03:34:19;;;;;;;11.75;8.25;;;13.90;99.90;;;;;;5036174;28;20033;-64
2021/06/03 03:36:45;;;;;;;13.00;8.48;;;13.90;99.90;;;;;;5014353;28;20116;-64
2021/06/03 03:39:12;;;;;;;12.77;8.65;;;13.90;99.90;;;;;;5036429;28;20078;-64
2021/06/03 03:41:38;;;;;;;13.23;8.02;;;13.90;99.90;;;;;;5035341;28;20059;-64
2021/06/03 03:44:04;;;;;;;11.60;7.53;;;13.90;99.90;;;;;;5034165;28;20036;-64
2021/06/03 03:46:30;;;;;;;11.50;7.07;;;14.00;99.90;;;;;;5033202;28;20036;-64
2021/06/03 03:48:56;;;;;;;12.27;7.07;;;14.00;99.90;;;;;;5034298;28;20033;-63
2021/06/03 03:51:22;;;;;;;8.65;5.57;;;14.00;99.90;;;;;;5035443;28;20362;-64
2021/06/03 03:53:48;;;;;;;11.02;4.60;;;14.00;99.90;;;;;;5034446;28;20515;-64
2021/06/03 03:56:14;;;;;;;8.52;4.22;;;14.00;99.90;;;;;;5029197;28;20029;-64
2021/06/03 03:58:43;;;;;;;7.10;4.63;;;14.00;99.90;;;;;;5032231;28;20032;-64
2021/06/03 04:01:09;;;;;;;7.72;4.43;;;14.00;99.90;;;;;;5034653;28;20025;-64
2021/06/03 04:03:36;;;;;;;8.85;4.20;;;13.90;99.90;;;;;;5030198;28;20485;-64
2021/06/03 04:06:03;;;;;;;8.90;4.70;;;13.90;99.90;;;;;;5030221;28;20029;-74
2021/06/03 04:08:29;;;;;;;8.20;4.82;;;13.80;99.90;;;;;;5025969;28;20048;-74
2021/06/03 04:10:55;;;;;;;8.23;4.57;;;13.80;99.90;;;;;;5032590;28;20029;-74
2021/06/03 04:13:21;;;;;;;6.60;4.00;;;13.70;99.90;;;;;;5034775;28;20149;-74
2021/06/03 04:15:47;;;;;;;5.47;3.28;;;13.70;99.90;;;;;;5032724;28;20120;-73
2021/06/03 04:18:13;;;;;;;6.10;3.30;;;13.70;99.90;;;;;;5032598;28;20399;-74
2021/06/03 04:20:39;;;;;;;6.40;3.30;;;13.70;99.90;;;;;;5032359;28;20086;-73
2021/06/03 04:23:05;;;;;;;4.22;2.80;;;13.70;99.90;;;;;;5033180;28;20135;-73
2021/06/03 04:25:31;;;;;;;6.35;2.92;;;13.70;99.90;;;;;;5034009;28;20064;-74
2021/06/03 04:27:57;;;;;;;5.35;3.00;;;13.80;99.90;;;;;;5034812;28;20148;-73
2021/06/03 04:30:26;;;;;;;6.00;2.75;;;13.90;99.90;;;;;;5025025;28;20028;-73
2021/06/03 04:32:52;;;;;;;6.43;2.65;;;14.00;99.90;;;;;;5034104;28;20033;-74
2021/06/03 04:35:20;;;;;;;8.00;2.97;;;14.00;99.90;;;;;;5031696;28;20108;-73
2021/06/03 04:37:50;;;;;;;4.28;2.50;;;14.10;99.90;;;;;;5030663;28;20124;-74
2021/06/03 04:40:18;;;;;;;6.80;2.60;;;14.30;99.90;;;;;;5028064;28;20032;-73
2021/06/03 04:42:45;;;;;;;5.20;2.90;;;14.30;99.90;;;;;;5030270;28;20645;-74
2021/06/03 04:45:13;;;;;;;6.85;2.63;;;14.30;99.90;;;;;;5031113;28;20501;-73
2021/06/03 04:47:40;;;;;;;6.38;2.80;;;14.40;99.90;;;;;;5026494;28;20033;-74
2021/06/03 04:50:07;;;;;;;4.07;2.28;;;14.30;99.90;;;;;;5031337;28;20040;-73
2021/06/03 04:52:33;;;;;;;6.88;2.78;;;14.40;99.90;;;;;;5028842;28;20503;-73
2021/06/03 04:55:05;;;;;;;4.65;2.35;;;14.60;99.90;;;;;;5034141;28;20112;-74
2021/06/03 04:57:33;;;;;;;3.55;2.17;;;14.60;99.90;;;;;;5025786;28;20029;-74
2021/06/03 04:59:59;;;;;;;6.60;2.38;;;14.60;99.90;;;;;;5027854;28;20894;-73
2021/06/03 05:02:25;;;;;;;5.25;2.40;;;14.60;99.90;;;;;;5018489;28;20594;-74
2021/06/03 05:04:52;;;;;;;3.13;2.35;;;14.60;99.90;;;;;;5031070;28;20180;-73
2021/06/03 05:07:18;;;;;;;10.18;2.63;;;14.50;99.90;;;;;;5034101;28;20043;-74
2021/06/03 05:09:44;;;;;;;4.30;2.67;;;14.60;99.90;;;;;;5034319;28;20747;-73
2021/06/03 05:12:11;;;;;;;7.30;2.38;;;14.70;99.90;;;;;;5034382;28;20398;-74
2021/06/03 05:14:36;;;;;;;6.18;2.20;;;14.90;99.90;;;;;;5034403;28;20025;-73
2021/06/03 05:17:03;;;;;;;4.53;1.83;;;15.00;99.90;;;;;;5034710;28;20115;-73
2021/06/03 05:19:29;;;;;;;2.92;1.70;;;15.20;99.90;;;;;;5035894;28;20036;-73
2021/06/03 05:21:54;;;;;;;3.22;1.70;;;15.20;99.90;;;;;;5035976;28;20024;-73
2021/06/03 05:24:20;;;;;;;4.07;1.60;;;15.40;99.90;;;;;;5036635;28;20399;-73
2021/06/03 05:26:46;;;;;;;2.03;1.40;;;15.50;99.90;;;;;;5036389;28;20094;-73
2021/06/03 05:29:15;;;;;;;4.03;1.35;;;15.60;99.90;;;;;;5035193;28;20049;-73
2021/06/03 05:31:45;;;;;;;2.03;1.38;;;15.80;99.90;;;;;;5035827;28;20111;-72
2021/06/03 05:34:12;;;;;;;2.45;1.38;;;16.00;99.90;;;;;;5035181;28;20145;-73
2021/06/03 05:36:38;;;;;;;3.15;1.50;;;16.20;99.90;;;;;;5015416;28;20434;-73
2021/06/03 05:39:06;;;;;;;2.00;1.30;;;16.30;99.90;;;;;;5034263;28;20083;-72
2021/06/03 05:41:32;;;;;;;6.97;1.50;;;16.30;99.90;;;;;;5036061;28;20024;-72
2021/06/03 05:43:59;;;;;;;1.02;0.88;;;16.40;99.90;;;;;;5037546;28;20569;-71
2021/06/03 05:46:25;;;;;;;1.40;1.10;;;16.50;99.90;;;;;;5037511;28;20040;-72
2021/06/03 05:48:51;;;;;;;3.45;1.10;;;16.50;99.90;;;;;;5037990;28;20429;-71
2021/06/03 05:51:17;;;;;;;3.90;1.50;;;16.60;99.90;;;;;;5039309;28;20457;-71
2021/06/03 05:53:43;;;;;;;4.82;1.40;;;16.70;99.90;;;;;;5037472;28;20126;-72
2021/06/03 05:56:08;;;;;;;3.85;1.48;;;16.70;99.90;;;;;;5040395;28;20017;-72
2021/06/03 05:58:34;;;;;;;3.80;1.23;;;16.70;99.90;;;;;;5038929;28;20052;-72
2021/06/03 06:01:01;;;;;;;2.58;1.30;;;16.90;99.90;;;;;;5039573;28;20473;-71
2021/06/03 06:08:41;;;;;;;3.53;1.65;;;17.20;99.90;;;;;;5037067;28;20517;-72
2021/06/03 06:11:08;;;;;;;2.22;1.52;;;17.30;99.90;;;;;;5038219;28;20068;-72
2021/06/03 06:13:35;;;;;;;7.00;2.03;;;17.20;99.90;;;;;;5036881;28;20160;-72
2021/06/03 06:16:02;;;;;;;2.33;1.90;;;17.30;99.90;;;;;;5039271;28;20032;-72
2021/06/03 06:18:28;;;;;;;5.78;1.80;;;17.40;99.90;;;;;;5039466;28;20029;-72
2021/06/03 06:20:54;;;;;;;8.23;2.53;;;17.40;99.90;;;;;;5037461;28;20114;-72
2021/06/03 06:23:20;;;;;;;4.13;2.35;;;17.40;99.90;;;;;;5039085;28;20443;-71
2021/06/03 06:25:46;;;;;;;3.95;2.20;;;17.50;99.90;;;;;;5038303;28;20063;-72
2021/06/03 06:28:14;;;;;;;3.83;2.10;;;17.60;99.90;;;;;;5038914;28;20583;-72
2021/06/03 06:30:41;;;;;;;4.63;2.13;;;17.60;99.90;;;;;;5036890;28;20036;-72
2021/06/03 06:33:07;;;;;;;4.18;2.00;;;17.70;99.90;;;;;;5036023;28;20037;-72
2021/06/03 06:35:34;;;;;;;5.38;2.20;;;17.70;99.90;;;;;;5020794;28;20033;-72
2021/06/03 06:38:00;;;;;;;4.85;2.47;;;17.50;99.90;;;;;;5037810;28;20033;-72
2021/06/03 06:40:27;;;;;;;6.25;3.17;;;17.60;99.90;;;;;;5036241;28;20035;-72
2021/06/03 06:42:55;;;;;;;7.65;2.58;;;17.60;99.90;;;;;;5037804;28;20481;-72
2021/06/03 06:45:24;;;;;;;4.57;2.35;;;17.90;99.90;;;;;;5020982;28;20032;-72
2021/06/03 06:47:50;;;;;;;9.03;3.83;;;17.80;99.90;;;;;;5039138;28;20081;-72
2021/06/03 06:50:16;;;;;;;4.68;2.67;;;17.70;99.90;;;;;;5035619;28;20108;-72
2021/06/03 06:52:42;;;;;;;3.80;2.67;;;17.70;99.90;;;;;;5038506;28;20535;-72
2021/06/03 06:55:09;;;;;;;4.45;2.60;;;17.80;99.90;;;;;;5037402;28;20047;-72
2021/06/03 06:57:36;;;;;;;4.13;2.65;;;17.80;99.90;;;;;;5021076;28;20578;-73
2021/06/03 07:00:05;;;;;;;4.97;2.83;;;17.70;99.90;;;;;;5035499;28;20051;-71
2021/06/03 07:02:31;;;;;;;4.53;3.00;;;17.80;99.90;;;;;;5036702;28;20025;-70
2021/06/03 07:04:57;;;;;;;5.07;3.00;;;18.10;99.90;;;;;;5039146;28;20063;-71
2021/06/03 07:07:23;;;;;;;4.43;3.00;;;18.30;99.90;;;;;;5036360;28;20028;-71
2021/06/03 07:09:49;;;;;;;7.07;2.90;;;18.40;99.90;;;;;;5037377;28;20551;-71
2021/06/03 07:12:15;;;;;;;6.63;3.30;;;18.40;99.90;;;;;;5036416;28;20063;-71
2021/06/03 07:14:41;;;;;;;6.22;3.67;;;18.30;99.90;;;;;;5018766;28;20068;-71
2021/06/03 07:17:07;;;;;;;8.27;3.97;;;18.30;99.90;;;;;;5038568;28;20104;-72
2021/06/03 07:19:33;;;;;;;10.35;4.07;;;18.30;99.90;;;;;;5037636;28;20043;-72
2021/06/03 07:21:59;;;;;;;6.70;3.92;;;18.40;99.90;;;;;;5035290;28;20025;-72
2021/06/03 07:24:25;;;;;;;6.75;4.13;;;18.70;99.90;;;;;;5017053;28;20052;-73
2021/06/03 07:26:51;;;;;;;6.75;3.80;;;19.10;99.90;;;;;;5016853;28;20431;-73
2021/06/03 07:29:16;;;;;;;11.38;4.25;;;19.30;99.90;;;;;;5015051;28;20068;-73
2021/06/03 07:31:42;;;;;;;8.15;4.10;;;19.40;99.90;;;;;;5017107;28;20460;-73
2021/06/03 07:34:08;;;;;;;7.88;4.15;;;19.40;99.90;;;;;;5018699;28;20425;-73
2021/06/03 07:36:35;;;;;;;7.68;4.47;;;19.40;99.90;;;;;;5016866;28;20040;-73
2021/06/03 07:39:04;;;;;;;8.93;4.43;;;19.50;99.90;;;;;;5017637;28;20083;-73
2021/06/03 07:41:31;;;;;;;6.78;4.50;;;19.70;99.90;;;;;;5017977;28;20029;-74
2021/06/03 07:43:57;;;;;;;6.15;4.22;;;20.00;99.90;;;;;;5016755;28;20061;-74
2021/06/03 07:46:23;;;;;;;8.05;3.92;;;20.00;99.90;;;;;;5016447;28;20714;-74
2021/06/03 07:48:48;;;;;;;8.40;4.80;;;19.60;99.90;;;;;;5017189;28;20049;-74
2021/06/03 07:51:14;;;;;;;8.02;4.78;;;19.40;99.90;;;;;;5017911;28;20034;-74
2021/06/03 07:53:40;;;;;;;9.07;4.20;;;19.30;99.90;;;;;;5008826;28;20033;-74
2021/06/03 07:56:06;;;;;;;7.10;4.10;;;19.60;99.90;;;;;;5017436;28;20475;-74
2021/06/03 07:58:32;;;;;;;9.55;4.18;;;19.30;99.90;;;;;;5017813;28;20526;-74
2021/06/03 08:00:58;;;;;;;8.85;4.50;;;19.00;99.90;;;;;;5017093;28;20376;-74
2021/06/03 08:03:24;;;;;;;8.32;4.20;;;18.90;99.90;;;;;;5017100;28;20043;-74
2021/06/03 08:05:51;;;;;;;9.27;4.07;;;18.70;99.90;;;;;;5017723;28;20021;-74
2021/06/03 08:08:17;;;;;;;10.40;5.00;;;18.60;99.90;;;;;;5015341;28;20454;-74
2021/06/03 08:10:43;;;;;;;7.63;5.13;;;18.50;99.90;;;;;;5012261;28;20041;-74
2021/06/03 08:13:10;;;;;;;6.07;3.90;;;18.40;99.90;;;;;;5016559;28;20041;-74
2021/06/03 08:15:41;;;;;;;9.00;4.43;;;18.60;99.90;;;;;;5015721;28;20032;-74
2021/06/03 08:18:08;;;;;;;7.78;4.07;;;19.10;99.90;;;;;;5017903;28;20040;-74
2021/06/03 08:20:45;;;;;;;7.43;4.00;;;19.50;99.90;;;;;;5016600;28;20033;-74
2021/06/03 08:23:17;;;;;;;10.07;4.40;;;19.80;99.90;;;;;;5019181;28;20925;-74
2021/06/03 08:25:44;;;;;;;10.45;4.15;;;20.00;99.90;;;;;;5037512;28;20291;-74
2021/06/03 08:28:10;;;;;;;8.65;4.70;;;20.00;99.90;;;;;;5035506;28;20037;-74
2021/06/03 08:30:37;;;;;;;8.98;4.20;;;20.00;99.90;;;;;;5035758;28;20448;-74
2021/06/03 08:33:04;;;;;;;7.22;3.80;;;19.90;99.90;;;;;;5035356;28;20071;-74
2021/06/03 08:35:30;;;;;;;8.95;4.25;;;19.80;99.90;;;;;;5034344;28;20079;-74
2021/06/03 08:37:58;;;;;;;11.48;4.47;;;19.90;99.90;;;;;;5036952;28;20028;-74
2021/06/03 08:40:31;;;;;;;12.60;5.70;;;20.10;99.90;;;;;;5033699;28;20130;-74
2021/06/03 08:42:58;;;;;;;9.90;4.32;;;20.20;99.90;;;;;;5035644;28;20033;-75
2021/06/03 08:45:26;;;;;;;7.00;4.00;;;20.50;99.90;;;;;;5017773;28;20068;-74
2021/06/03 08:47:53;;;;;;;7.45;4.30;;;20.80;99.90;;;;;;5033672;28;20033;-74
2021/06/03 08:50:19;;;;;;;6.68;3.38;;;21.30;99.90;;;;;;5036326;28;20078;-75
2021/06/03 08:52:45;;;;;;;7.28;3.92;;;21.50;99.90;;;;;;5033734;28;20040;-75
2021/06/03 08:56:14;;;;;;;7.28;3.83;;;21.50;99.90;;;;;;5034742;28;20457;-75
2021/06/03 08:58:08;;;;;;;6.22;4.18;;;21.60;99.90;;;;;;5036396;28;20044;-75
2021/06/03 09:00:35;;;;;;;6.78;3.72;;;21.90;99.90;;;;;;5034818;28;20404;-75
2021/06/03 09:03:01;;;;;;;8.32;4.47;;;22.00;99.90;;;;;;5035235;28;20024;-75
2021/06/03 09:05:28;;;;;;;8.20;4.40;;;22.00;99.90;;;;;;5018199;28;20033;-75
2021/06/03 09:07:54;;;;;;;7.03;3.92;;;22.00;99.90;;;;;;5018564;28;20025;-76
2021/06/03 09:10:37;;;;;;;5.25;3.58;;;21.60;99.90;;;;;;5034771;28;20124;-75
2021/06/03 09:13:06;;;;;;;7.93;4.05;;;21.40;99.90;;;;;;5036240;28;20033;-77
2021/06/03 09:15:32;;;;;;;5.90;4.35;;;21.20;99.90;;;;;;5036063;28;20059;-77
2021/06/03 09:17:58;;;;;;;7.50;4.20;;;20.90;99.90;;;;;;5035125;28;20068;-76
2021/06/03 09:20:25;;;;;;;7.15;4.18;;;21.40;99.90;;;;;;5039718;28;20037;-76
2021/06/03 09:22:55;;;;;;;7.15;4.25;;;21.70;99.90;;;;;;5040646;28;20230;-76
2021/06/03 09:25:29;;;;;;;5.57;3.95;;;21.70;99.90;;;;;;5040834;28;20477;-78
2021/06/03 09:27:55;;;;;;;9.60;4.15;;;21.40;99.90;;;;;;5040218;28;20585;-77
2021/06/03 09:30:21;;;;;;;8.55;4.63;;;21.00;99.90;;;;;;5038907;28;20484;-76
2021/06/03 09:32:54;;;;;;;8.18;4.38;;;20.60;99.90;;;;;;5039462;28;20032;-77
2021/06/03 09:35:20;;;;;;;10.88;4.78;;;20.30;99.90;;;;;;5040509;28;20040;-75
2021/06/03 09:37:46;;;;;;;8.93;4.93;;;20.00;99.90;;;;;;5038768;28;20107;-74
2021/06/03 09:40:22;;;;;;;9.40;4.70;;;19.80;99.90;;;;;;5039825;28;20570;-74
2021/06/03 09:43:07;;;;;;;9.63;4.40;;;19.60;99.90;;;;;;5038632;28;20029;-74
2021/06/03 09:45:59;;;;;;;8.48;5.05;;;19.40;99.90;;;;;;5020951;28;20033;-74
2021/06/03 09:48:46;;;;;;;8.40;5.00;;;19.30;99.90;;;;;;5021678;28;20559;-74
2021/06/03 09:51:24;;;;;;;11.15;4.93;;;19.30;99.90;;;;;;5039766;28;20024;-74
2021/06/03 09:54:11;;;;;;;12.05;4.80;;;19.30;99.90;;;;;;5021922;28;20327;-74
2021/06/03 09:56:42;;;;;;;7.95;5.05;;;19.30;99.90;;;;;;5036764;28;20340;-74
2021/06/03 09:59:16;;;;;;;10.20;5.65;;;19.30;99.90;;;;;;5038446;28;20518;-73
2021/06/03 10:01:45;;;;;;;9.65;5.70;;;19.60;99.90;;;;;;5037034;28;20041;-73
2021/06/03 10:04:13;;;;;;;12.55;5.40;;;20.20;99.90;;;;;;5037248;28;20034;-73
2021/06/03 10:06:58;;;;;;;7.88;5.80;;;20.70;99.90;;;;;;5040127;28;20313;-74
2021/06/03 10:09:36;;;;;;;12.50;5.47;;;21.30;99.90;;;;;;5039779;28;20075;-75
2021/06/03 10:12:03;;;;;;;11.43;5.35;;;21.30;99.90;;;;;;5038279;28;20399;-75
2021/06/03 10:14:28;;;;;;;9.10;5.22;;;21.40;99.90;;;;;;5039225;28;20524;-77
2021/06/03 10:16:55;;;;;;;11.90;5.70;;;21.40;99.90;;;;;;5039416;28;20040;-75
2021/06/03 10:19:27;;;;;;;9.07;5.47;;;21.80;99.90;;;;;;5038856;28;20063;-76
2021/06/03 10:22:10;;;;;;;8.50;5.05;;;22.00;99.90;;;;;;5039040;28;20141;-75
2021/06/03 10:25:04;;;;;;;7.40;5.35;;;22.10;99.90;;;;;;5036446;28;20103;-76
2021/06/03 10:27:38;;;;;;;7.72;5.20;;;21.80;99.90;;;;;;5039183;28;20036;-76
2021/06/03 10:30:11;;;;;;;11.05;5.50;;;21.50;99.90;;;;;;5038722;28;20040;-76
2021/06/03 10:32:39;;;;;;;8.73;5.38;;;21.60;99.90;;;;;;5039198;28;20025;-76
2021/06/03 10:35:09;;;;;;;8.23;5.15;;;22.00;99.90;;;;;;5037595;28;20104;-76
2021/06/03 10:37:36;;;;;;;7.68;4.75;;;22.10;99.90;;;;;;5038985;28;20766;-76
2021/06/03 10:40:06;;;;;;;11.18;5.60;;;21.60;99.90;;;;;;5037255;28;20155;-77
2021/06/03 10:42:32;;;;;;;15.95;7.13;;;21.20;99.90;;;;;;5039302;28;20268;-77
2021/06/03 10:44:58;;;;;;;9.25;6.30;;;21.00;99.90;;;;;;5039676;28;20427;-77
2021/06/03 10:47:24;;;;;;;8.77;4.80;;;20.80;99.90;;;;;;5038083;28;20355;-77
2021/06/03 10:49:50;;;;;;;8.50;5.18;;;20.80;99.90;;;;;;5037524;28;20075;-78
2021/06/03 10:52:17;;;;;;;7.30;5.68;;;20.80;99.90;;;;;;5036055;28;20021;-77
2021/06/03 10:54:46;;;;;;;6.93;5.47;;;20.80;99.90;;;;;;5038253;28;20523;-77
2021/06/03 10:57:14;;;;;;;8.05;4.88;;;20.90;99.90;;;;;;5038441;28;20025;-79
2021/06/03 10:59:41;;;;;;;9.35;5.32;;;21.00;99.90;;;;;;5039703;28;20087;-78
2021/06/03 11:02:08;;;;;;;9.85;5.93;;;20.90;99.90;;;;;;5038576;28;20039;-78
2021/06/03 11:04:35;;;;;;;8.55;6.03;;;20.90;99.90;;;;;;5038765;28;20251;-78
2021/06/03 11:07:02;;;;;;;9.93;6.07;;;21.30;99.90;;;;;;5036062;28;20027;-77
2021/06/03 11:09:33;;;;;;;9.95;6.18;;;22.00;99.90;;;;;;5018241;28;20041;-79
2021/06/03 11:12:12;;;;;;;11.38;5.85;;;22.60;99.90;;;;;;5038446;28;20021;-78
2021/06/03 11:14:57;;;;;;;;;;;22.50;99.90;;;;;;5013258;28;20033;-79
2021/06/03 11:17:51;;;;;;;13.55;6.60;;;21.90;99.90;;;;;;5037732;28;19913;-79
2021/06/03 11:20:31;;;;;;;9.55;6.20;;;22.00;99.90;;;;;;5037960;28;20029;-80
2021/06/03 11:22:56;;;;;;;9.82;7.20;;;22.10;99.90;;;;;;5036861;28;20097;-79
2021/06/03 11:25:49;;;;;;;14.30;7.68;;;21.70;99.90;;;;;;5019563;28;20488;-80
2021/06/03 11:28:22;;;;;;;13.82;7.85;;;21.50;99.90;;;;;;5033380;28;20496;-81
2021/06/03 11:30:52;;;;;;;11.23;7.65;;;21.40;99.90;;;;;;5037298;28;20037;-81
2021/06/03 11:33:18;;;;;;;11.40;6.47;;;21.50;99.90;;;;;;5038359;28;20609;-80
2021/06/03 11:35:44;;;;;;;9.52;6.93;;;21.50;99.90;;;;;;5020573;28;20108;-80
2021/06/03 11:38:09;;;;;;;9.77;6.68;;;21.70;99.90;;;;;;5036398;28;20564;-80
2021/06/03 11:40:42;;;;;;;11.07;6.95;;;22.40;99.90;;;;;;5037464;28;20040;-81
2021/06/03 11:43:10;;;;;;;11.65;6.70;;;22.70;99.90;;;;;;5037529;28;20040;-80
2021/06/03 11:45:44;;;;;;;9.32;6.18;;;22.80;99.90;;;;;;5036515;28;20502;-81
2021/06/03 11:48:16;;;;;;;9.50;6.80;;;22.50;99.90;;;;;;5036897;28;20091;-82
2021/06/03 11:50:48;;;;;;;10.80;6.53;;;22.10;99.90;;;;;;5038473;28;20032;-83
2021/06/03 11:53:17;;;;;;;13.27;6.03;;;21.80;99.90;;;;;;5036423;28;20033;-83
2021/06/03 11:55:52;;;;;;;9.95;6.68;;;21.50;99.90;;;;;;5034570;28;20049;-82
2021/06/03 11:58:20;;;;;;;17.80;7.65;;;21.50;99.90;;;;;;5037390;28;20116;-83
2021/06/03 12:00:50;;;;;;;12.65;7.18;;;21.20;99.90;;;;;;5011395;28;20032;-82
2021/06/03 12:03:23;;;;;;;;;;;21.00;99.90;;;;;;5037903;28;20029;-82
2021/06/03 12:05:49;;;;;;;13.27;6.78;;;20.80;99.90;;;;;;5036558;28;19963;-81
2021/06/03 12:08:47;;;;;;;11.10;6.53;;;20.70;99.90;;;;;;5037095;28;20344;-81
2021/06/03 12:11:13;;;;;;;10.70;7.00;;;20.70;99.90;;;;;;5007888;28;20036;-83
2021/06/03 12:13:40;;;;;;;10.95;7.13;;;20.70;99.90;;;;;;5036083;28;20075;-82
2021/06/03 12:16:07;;;;;;;16.73;7.70;;;20.70;99.90;;;;;;5019402;28;20106;-82
2021/06/03 12:18:49;;;;;;;13.60;7.25;;;20.70;99.90;;;;;;5035542;28;20052;-82
2021/06/03 12:21:15;;;;;;;13.30;7.40;;;20.70;99.90;;;;;;5018765;28;20043;-82
2021/06/03 12:23:52;;;;;;;11.73;7.22;;;20.80;99.90;;;;;;5036212;28;20048;-79
2021/06/03 12:26:27;;;;;;;12.18;6.00;;;20.90;99.90;;;;;;5036305;28;20535;-80
2021/06/03 12:28:53;;;;;;;9.32;4.90;;;21.30;99.90;;;;;;5038144;28;20040;-81
2021/06/03 12:31:25;;;;;;;7.72;5.35;;;21.80;99.90;;;;;;5035810;28;20131;-80
2021/06/03 12:33:51;;;;;;;9.48;4.53;;;22.30;99.90;;;;;;5036398;28;20033;-81
2021/06/03 12:36:17;;;;;;;8.68;4.55;;;22.20;99.90;;;;;;5019292;28;20025;-82
2021/06/03 12:38:49;;;;;;;7.55;4.28;;;22.10;99.90;;;;;;5035890;28;20435;-81
2021/06/03 12:41:34;;;;;;;7.03;4.20;;;22.00;99.90;;;;;;5037069;28;20028;-81
2021/06/03 12:44:09;;;;;;;12.90;5.25;;;21.90;99.90;;;;;;5036930;28;20441;-81
2021/06/03 12:46:38;;;;;;;11.23;4.90;;;21.80;99.90;;;;;;5035006;28;20040;-81
2021/06/03 12:49:24;;;;;;;8.67;4.43;;;21.80;99.90;;;;;;5034076;28;20131;-81
2021/06/03 12:52:08;;;;;;;11.52;5.55;;;21.80;99.90;;;;;;5035726;28;20040;-80
2021/06/03 12:54:35;;;;;;;11.27;5.35;;;22.00;99.90;;;;;;5033306;28;20571;-80